Terminal Aerodrome Forecast
Issued by NWS Denver/Boulder, CO

Current Version | Previous Version | Text Only | Print | Product List | Glossary On
Versions: 1 2 3 4 5 6 7 8 9 10 11 12 13 14 15 16 17 18 19 20 21 22 23 24 25 26 27 28 29 30 31 32 33 34 35 36 37 38 39 40 41 42 43 44 45 46 47 48 49 50
000
FTUS45 KBOU 140522
TAFDEN
TAF
KDEN 140522Z 1406/1512 22010KT P6SM FEW110 SCT200
     FM141100 25007KT P6SM FEW120 SCT200
     FM141300 33007KT P6SM FEW120 SCT200
     FM141500 03010KT P6SM FEW070 SCT120
     FM141900 06010KT P6SM SCT070 BKN120 PROB30 1422/1502 VRB15G30KT
      -TSRA BKN070CB
     FM150200 12007KT P6SM VCSH SCT070 BKN120
     FM150400 16008KT P6SM VCSH SCT060 BKN110
     FM150600 20011KT P6SM SCT060 BKN110=

USA.gov is the U.S. government's official web portal to all federal, state and local government web resources and services.